Time;durP1;ratioP1;P1;durP2;ratioP2;P2;SDS_P1;SDS_P2;PMS_P1;PMS_P2;Temp;Humidity;BMP_temperature;BMP_pressure;BME280_temperature;BME280_humidity;BME280_pressure;Samples;Min_cycle;Max_cycle;Signal;HPM_P1;HPM_P2
2021/08/02 00:01:00;;;;;;;3.43;0.67;;;14.60;99.90;14.20;96332.00;;;;5029204;28;20189;-87
2021/08/02 00:03:53;;;;;;;1.37;0.60;;;14.60;99.90;14.20;96318.00;;;;5005697;28;20230;-86
2021/08/02 00:06:50;;;;;;;4.13;0.80;;;14.70;99.90;14.20;96333.00;;;;5010627;28;20205;-86
2021/08/02 00:09:44;;;;;;;0.40;0.40;;;14.60;99.90;14.20;96320.00;;;;5009501;28;20674;-87
2021/08/02 00:12:37;;;;;;;0.67;0.67;;;14.60;99.90;14.10;96321.00;;;;5009985;28;20240;-87
2021/08/02 00:15:29;;;;;;;3.33;0.60;;;14.60;99.90;14.10;96321.00;;;;5010225;28;20222;-87
2021/08/02 00:18:18;;;;;;;1.33;1.23;;;14.50;99.90;14.00;96312.00;;;;5011383;28;20301;-87
2021/08/02 00:21:08;;;;;;;0.67;0.60;;;14.60;99.90;14.10;96323.00;;;;5011730;28;20198;-86
2021/08/02 00:23:58;;;;;;;0.50;0.50;;;14.50;99.90;14.00;96328.00;;;;5011407;28;20228;-86
2021/08/02 00:26:48;;;;;;;1.37;0.70;;;14.50;99.90;14.00;96320.00;;;;5009859;28;20248;-86
2021/08/02 00:29:40;;;;;;;0.50;0.50;;;14.50;99.90;14.00;96315.00;;;;5010066;28;20850;-85
2021/08/02 00:32:32;;;;;;;1.07;0.60;;;14.50;99.90;14.00;96323.00;;;;5010995;28;20201;-86
2021/08/02 00:35:22;;;;;;;1.23;0.63;;;14.50;99.90;14.00;96322.00;;;;5010907;28;20327;-86
2021/08/02 00:38:22;;;;;;;3.43;0.60;;;14.40;99.90;14.10;96321.00;;;;5010542;28;20615;-86
2021/08/02 00:41:21;;;;;;;0.77;0.63;;;14.40;99.90;14.00;96320.00;;;;5010997;28;20233;-86
2021/08/02 00:44:57;;;;;;;0.53;0.53;;;14.40;99.90;14.00;96326.00;;;;5010798;28;20241;-86
2021/08/02 00:47:51;;;;;;;0.73;0.73;;;14.40;99.90;14.00;96330.00;;;;4942740;28;20207;-86
2021/08/02 00:50:43;;;;;;;0.63;0.63;;;14.40;99.90;14.00;96337.00;;;;4991145;28;20940;-87
2021/08/02 00:53:35;;;;;;;1.27;0.60;;;14.40;99.90;14.00;96340.00;;;;4992169;28;20231;-87
2021/08/02 00:56:24;;;;;;;1.33;0.77;;;14.40;99.90;14.00;96345.00;;;;5029796;28;20231;-86
2021/08/02 00:59:15;;;;;;;0.80;0.73;;;14.40;99.90;14.10;96352.00;;;;5030871;28;20194;-86
2021/08/02 01:02:05;;;;;;;0.93;0.50;;;14.40;99.90;14.00;96352.00;;;;5019836;28;20201;-86
2021/08/02 01:04:56;;;;;;;1.70;0.40;;;14.40;99.90;13.90;96336.00;;;;5010210;28;20284;-86
2021/08/02 01:07:49;;;;;;;0.70;0.70;;;14.40;99.90;14.00;96344.00;;;;5011406;28;20234;-86
2021/08/02 01:10:46;;;;;;;0.60;0.60;;;14.40;99.90;13.90;96352.00;;;;4999805;28;20203;-86
2021/08/02 01:13:37;;;;;;;1.17;1.00;;;14.40;99.90;14.00;96357.00;;;;4991007;28;20227;-86
2021/08/02 01:16:27;;;;;;;0.63;0.63;;;14.40;99.90;14.00;96358.00;;;;5007621;28;20983;-85
2021/08/02 01:19:17;;;;;;;5.80;0.87;;;14.40;99.90;13.90;96368.00;;;;5009520;28;20252;-85
2021/08/02 01:22:13;;;;;;;0.97;0.90;;;14.40;99.90;13.70;96377.00;;;;5009377;28;20198;-86
2021/08/02 01:25:58;;;;;;;0.73;0.63;;;14.40;99.90;13.70;96371.00;;;;5003707;28;20620;-85
2021/08/02 01:29:43;;;;;;;0.90;0.90;;;14.30;99.90;13.70;96371.00;;;;4980843;28;20305;-85
2021/08/02 01:32:32;;;;;;;0.70;0.60;;;14.20;99.90;13.70;96382.00;;;;5002965;28;20287;-86
2021/08/02 01:35:21;;;;;;;2.93;0.50;;;14.20;99.90;13.60;96384.00;;;;5010500;28;20225;-86
2021/08/02 01:38:13;;;;;;;2.40;0.67;;;14.20;99.90;13.70;96394.00;;;;5009823;28;20218;-86
2021/08/02 01:41:03;;;;;;;0.60;0.60;;;14.20;99.90;13.70;96399.00;;;;5009551;28;20677;-86
2021/08/02 01:43:52;;;;;;;0.57;0.57;;;14.10;99.90;13.40;96411.00;;;;5010052;28;20735;-87
2021/08/02 01:46:50;;;;;;;2.37;0.73;;;14.10;99.90;13.50;96414.00;;;;5012464;28;20198;-86
2021/08/02 01:49:52;;;;;;;0.83;0.67;;;14.00;99.90;13.50;96410.00;;;;5011450;28;20202;-87
2021/08/02 01:52:51;;;;;;;1.17;0.70;;;14.00;99.90;13.50;96426.00;;;;4999431;28;20666;-86
2021/08/02 01:56:05;;;;;;;0.50;0.40;;;14.00;99.90;13.50;96432.00;;;;5002344;28;20213;-87
2021/08/02 01:59:00;;;;;;;1.23;1.23;;;14.00;99.90;13.60;96437.00;;;;5000993;28;20526;-87
2021/08/02 02:01:56;;;;;;;1.23;0.80;;;14.00;99.90;13.60;96425.00;;;;5000441;28;20210;-86
2021/08/02 02:04:53;;;;;;;1.30;0.70;;;14.00;99.90;13.60;96434.00;;;;5000947;28;20222;-86
2021/08/02 02:07:48;;;;;;;0.70;0.70;;;14.00;99.90;13.60;96433.00;;;;5000294;28;20225;-85
2021/08/02 02:10:46;;;;;;;0.73;0.57;;;14.10;99.90;13.60;96437.00;;;;5010150;28;20600;-87
2021/08/02 02:13:39;;;;;;;0.50;0.50;;;14.10;99.90;13.60;96456.00;;;;5009261;28;20225;-87
2021/08/02 02:16:31;;;;;;;1.30;0.47;;;14.00;99.90;13.60;96455.00;;;;5009199;28;20209;-87
2021/08/02 02:19:22;;;;;;;0.70;0.70;;;14.00;99.90;13.50;96463.00;;;;5009792;28;20222;-86
2021/08/02 02:22:12;;;;;;;1.37;0.60;;;14.00;99.90;13.40;96457.00;;;;5008468;28;20206;-86
2021/08/02 02:25:02;;;;;;;2.00;0.80;;;14.00;99.90;13.30;96463.00;;;;5008906;28;20226;-86
2021/08/02 02:27:53;;;;;;;1.37;0.60;;;13.90;99.90;13.40;96469.00;;;;5009229;28;20206;-86
2021/08/02 02:30:43;;;;;;;0.87;0.70;;;13.90;99.90;13.30;96473.00;;;;5010225;28;20689;-86
2021/08/02 02:33:34;;;;;;;0.50;0.50;;;13.90;99.90;13.40;96467.00;;;;5012769;28;20218;-87
2021/08/02 02:36:24;;;;;;;1.57;0.63;;;13.80;99.90;13.30;96483.00;;;;5012867;28;20210;-87
2021/08/02 02:39:14;;;;;;;0.70;0.70;;;13.90;99.90;13.40;96493.00;;;;5013047;28;20222;-86
2021/08/02 02:42:03;;;;;;;0.60;0.60;;;13.90;99.90;13.30;96483.00;;;;5013250;28;20212;-86
2021/08/02 02:44:54;;;;;;;3.23;0.70;;;13.20;99.90;13.30;96490.00;;;;5012790;28;20242;-85
2021/08/02 02:47:45;;;;;;;0.80;0.80;;;13.80;99.90;13.30;96495.00;;;;5023641;28;20217;-87
2021/08/02 02:50:36;;;;;;;0.50;0.50;;;13.80;99.90;13.20;96503.00;;;;5031135;28;20201;-86
2021/08/02 02:53:26;;;;;;;0.60;0.60;;;13.70;99.90;13.20;96493.00;;;;5032770;28;20217;-87
2021/08/02 02:56:17;;;;;;;0.50;0.50;;;13.70;99.90;13.20;96503.00;;;;5012691;28;20715;-87
2021/08/02 02:59:06;;;;;;;5.90;0.80;;;13.70;99.90;13.30;96492.00;;;;5027549;28;20247;-88
2021/08/02 03:02:01;;;;;;;0.90;0.80;;;13.70;99.90;13.20;96502.00;;;;5036427;28;20209;-87
2021/08/02 03:04:54;;;;;;;0.67;0.67;;;13.70;99.90;13.20;96514.00;;;;5032286;28;20260;-87
2021/08/02 03:07:45;;;;;;;2.47;0.70;;;13.70;99.90;13.30;96521.00;;;;5011791;28;20202;-87
2021/08/02 03:10:34;;;;;;;1.13;0.60;;;13.70;99.90;13.10;96507.00;;;;5000666;28;20265;-86
2021/08/02 03:13:24;;;;;;;3.77;0.70;;;13.70;99.90;13.10;96515.00;;;;4991265;28;20221;-86
2021/08/02 03:16:13;;;;;;;0.57;0.57;;;13.60;99.90;13.10;96513.00;;;;5014666;28;20290;-86
2021/08/02 03:19:04;;;;;;;0.73;0.73;;;13.60;99.90;13.20;96511.00;;;;5031560;28;20244;-85
2021/08/02 03:21:53;;;;;;;1.33;0.73;;;13.60;99.90;13.10;96511.00;;;;5032028;28;20201;-86
2021/08/02 03:24:48;;;;;;;1.50;0.50;;;13.60;99.90;13.20;96510.00;;;;5026883;28;20279;-85
2021/08/02 03:27:45;;;;;;;0.50;0.50;;;13.40;99.90;13.10;96513.00;;;;5012074;28;20580;-86
2021/08/02 03:30:38;;;;;;;2.83;0.73;;;13.60;99.90;13.10;96519.00;;;;5010112;28;20198;-86
2021/08/02 03:33:33;;;;;;;0.50;0.50;;;13.60;99.90;13.00;96521.00;;;;5011714;28;21159;-86
2021/08/02 03:36:25;;;;;;;3.67;1.03;;;13.60;99.90;12.90;96522.00;;;;5011361;28;20256;-86
2021/08/02 03:39:18;;;;;;;3.27;0.80;;;13.50;99.90;12.80;96525.00;;;;5011364;28;20593;-85
2021/08/02 03:42:08;;;;;;;2.13;0.73;;;13.40;99.90;12.80;96524.00;;;;4998501;28;20854;-86
2021/08/02 03:44:58;;;;;;;0.40;0.40;;;14.30;99.90;12.60;96526.00;;;;5030502;28;20224;-85
2021/08/02 03:47:48;;;;;;;0.70;0.60;;;13.30;99.90;12.60;96531.00;;;;5019889;28;20268;-85
2021/08/02 03:50:38;;;;;;;0.80;0.80;;;13.30;99.90;12.70;96539.00;;;;5000548;28;20214;-85
2021/08/02 03:53:38;;;;;;;0.50;0.50;;;13.30;99.90;12.60;96540.00;;;;4990904;28;20237;-85
2021/08/02 03:56:28;;;;;;;0.50;0.50;;;13.20;99.90;12.60;96536.00;;;;5013183;28;20209;-85
2021/08/02 03:59:17;;;;;;;2.97;0.93;;;13.20;99.90;12.60;96535.00;;;;5011663;28;20264;-86
2021/08/02 04:02:06;;;;;;;0.70;0.67;;;13.20;99.90;12.60;96536.00;;;;5010662;28;20910;-86
2021/08/02 04:04:55;;;;;;;0.70;0.70;;;13.20;99.90;12.60;96535.00;;;;5006248;28;20226;-85
2021/08/02 04:07:46;;;;;;;4.20;0.80;;;13.10;99.90;12.60;96558.00;;;;5003726;28;20213;-85
2021/08/02 04:10:36;;;;;;;0.70;0.70;;;13.10;99.90;12.60;96565.00;;;;5012076;28;20628;-86
2021/08/02 04:13:25;;;;;;;0.73;0.47;;;13.10;99.90;12.50;96568.00;;;;5011859;28;20222;-86
2021/08/02 04:16:15;;;;;;;2.20;0.80;;;13.10;99.90;12.60;96571.00;;;;5008522;28;20205;-85
2021/08/02 04:19:05;;;;;;;1.80;0.80;;;13.10;99.90;12.60;96575.00;;;;5009441;28;20288;-86
2021/08/02 04:21:55;;;;;;;1.30;0.67;;;13.10;99.90;12.60;96571.00;;;;5011541;28;20216;-85
2021/08/02 04:24:44;;;;;;;1.65;0.70;;;12.90;99.90;12.60;96576.00;;;;5009906;28;21143;-86
2021/08/02 04:27:35;;;;;;;1.53;0.53;;;13.10;99.90;12.70;96573.00;;;;5010223;28;20214;-86
2021/08/02 04:30:24;;;;;;;0.50;0.40;;;13.10;99.90;12.70;96570.00;;;;5011014;28;20199;-85
2021/08/02 04:33:13;;;;;;;4.50;0.80;;;13.10;99.90;12.60;96569.00;;;;5010854;28;20217;-85
2021/08/02 04:36:02;;;;;;;0.73;0.67;;;13.10;99.90;12.80;96572.00;;;;5010876;28;20210;-86
2021/08/02 04:38:52;;;;;;;0.80;0.77;;;13.10;99.90;12.90;96568.00;;;;5011797;28;20225;-85
2021/08/02 04:41:40;;;;;;;3.07;0.80;;;13.20;99.90;12.90;96574.00;;;;5006237;28;20285;-85
2021/08/02 04:44:31;;;;;;;0.73;0.60;;;13.20;99.90;12.90;96575.00;;;;4991469;28;20277;-86
2021/08/02 04:47:20;;;;;;;0.60;0.60;;;13.30;99.90;13.00;96580.00;;;;5020199;28;20249;-85
2021/08/02 04:50:10;;;;;;;0.70;0.60;;;13.30;99.90;13.10;96572.00;;;;5009525;28;20198;-85
2021/08/02 04:52:59;;;;;;;1.00;0.50;;;13.40;99.90;13.20;96567.00;;;;5010530;28;20202;-86
2021/08/02 04:55:48;;;;;;;0.90;0.57;;;13.40;99.90;13.30;96563.00;;;;5014975;28;20213;-85
2021/08/02 04:58:37;;;;;;;0.70;0.70;;;13.50;99.90;13.30;96559.00;;;;5029635;28;20228;-84
2021/08/02 05:01:27;;;;;;;1.80;0.60;;;13.60;99.90;13.20;96561.00;;;;5025225;28;20198;-85
2021/08/02 05:04:17;;;;;;;1.73;0.70;;;13.60;99.90;13.00;96558.00;;;;5009633;28;20229;-85
2021/08/02 05:07:05;;;;;;;1.13;0.90;;;13.70;99.90;13.10;96573.00;;;;4990221;28;20191;-84
2021/08/02 05:09:54;;;;;;;0.77;0.77;;;13.60;99.90;13.00;96569.00;;;;4994233;28;20209;-85
2021/08/02 05:12:43;;;;;;;1.20;1.10;;;13.60;99.90;13.20;96573.00;;;;5009859;28;20206;-86
2021/08/02 05:15:34;;;;;;;0.90;0.77;;;13.60;99.90;13.20;96571.00;;;;5009624;28;20210;-85
2021/08/02 05:18:24;;;;;;;0.80;0.67;;;13.60;99.90;13.10;96567.00;;;;5010973;28;20677;-85
2021/08/02 05:21:13;;;;;;;2.07;0.60;;;13.70;99.90;13.20;96571.00;;;;4994846;28;20206;-85
2021/08/02 05:24:02;;;;;;;0.67;0.60;;;13.70;99.90;13.40;96574.00;;;;4991793;28;20219;-85
2021/08/02 05:26:51;;;;;;;0.60;0.60;;;13.80;99.90;13.50;96577.00;;;;5009504;28;20198;-85
2021/08/02 05:29:40;;;;;;;1.73;0.80;;;13.80;99.90;13.70;96579.00;;;;5009862;28;20593;-85
2021/08/02 05:32:28;;;;;;;0.90;0.70;;;13.90;99.90;13.70;96572.00;;;;5009874;28;20563;-86
2021/08/02 05:35:19;;;;;;;0.97;0.70;;;14.00;99.90;13.80;96582.00;;;;5001536;28;20607;-86
2021/08/02 05:38:08;;;;;;;0.87;0.53;;;14.10;99.90;13.70;96585.00;;;;4991229;28;20210;-85
2021/08/02 05:40:58;;;;;;;0.40;0.40;;;14.10;99.90;13.70;96587.00;;;;5003876;28;20217;-86
2021/08/02 05:43:47;;;;;;;0.53;0.53;;;14.10;99.90;13.80;96587.00;;;;5004345;28;20594;-86
2021/08/02 05:46:36;;;;;;;1.47;0.70;;;14.20;99.90;13.70;96595.00;;;;5011714;28;20202;-85
2021/08/02 05:49:25;;;;;;;0.70;0.60;;;14.20;99.90;13.90;96599.00;;;;5029235;28;20193;-85
2021/08/02 05:52:15;;;;;;;0.50;0.50;;;14.20;99.90;13.90;96594.00;;;;5010572;28;20205;-86
2021/08/02 05:55:05;;;;;;;0.77;0.60;;;14.30;99.90;14.00;96602.00;;;;5018354;28;20688;-85
2021/08/02 05:57:54;;;;;;;2.63;0.63;;;14.40;99.90;14.20;96603.00;;;;5030504;28;20685;-86
2021/08/02 06:00:43;;;;;;;0.47;0.47;;;14.40;99.90;14.30;96598.00;;;;5029799;28;20217;-85
2021/08/02 06:03:32;;;;;;;0.90;0.50;;;14.60;99.90;14.30;96593.00;;;;5002759;28;20699;-86
2021/08/02 06:06:21;;;;;;;0.70;0.70;;;14.60;99.90;14.50;96598.00;;;;5010344;28;20210;-86
2021/08/02 06:09:12;;;;;;;2.60;0.50;;;14.70;99.90;14.60;96595.00;;;;5013941;28;20673;-85
2021/08/02 06:12:01;;;;;;;0.87;0.87;;;14.80;99.90;14.70;96603.00;;;;5014107;28;20206;-86
2021/08/02 06:14:50;;;;;;;1.83;0.93;;;14.90;99.90;14.80;96611.00;;;;5014421;28;20229;-85
2021/08/02 06:17:39;;;;;;;0.53;0.53;;;15.00;99.90;14.70;96610.00;;;;5013483;28;20237;-86
2021/08/02 06:20:28;;;;;;;0.87;0.73;;;15.10;99.90;14.90;96615.00;;;;5012123;28;20222;-86
2021/08/02 06:23:17;;;;;;;0.87;0.80;;;15.20;99.90;15.00;96612.00;;;;5013342;28;20229;-85
2021/08/02 06:26:08;;;;;;;1.00;0.90;;;15.30;99.90;15.10;96624.00;;;;5012297;28;20712;-85
2021/08/02 06:28:57;;;;;;;1.97;0.70;;;15.30;99.90;15.20;96623.00;;;;5014739;28;20202;-85
2021/08/02 06:31:46;;;;;;;0.80;0.73;;;15.40;99.90;15.40;96620.00;;;;5013530;28;20264;-85
2021/08/02 06:34:36;;;;;;;2.13;0.77;;;15.60;99.90;15.40;96627.00;;;;5012978;28;20218;-86
2021/08/02 06:37:27;;;;;;;1.03;0.60;;;15.70;99.90;15.50;96631.00;;;;5012799;28;20206;-83
2021/08/02 06:40:17;;;;;;;0.90;0.90;;;15.80;99.90;15.80;96635.00;;;;5005959;28;20233;-85
2021/08/02 06:43:09;;;;;;;0.57;0.57;;;15.90;99.90;16.00;96633.00;;;;4992612;28;20226;-85
2021/08/02 06:45:57;;;;;;;1.10;0.70;;;16.10;99.90;16.00;96630.00;;;;5004952;28;20208;-86
2021/08/02 06:48:46;;;;;;;8.33;0.80;;;16.20;99.90;16.30;96636.00;;;;5008515;28;20202;-85
2021/08/02 06:51:35;;;;;;;1.00;0.87;;;16.30;99.90;16.60;96632.00;;;;5013539;28;20197;-85
2021/08/02 06:54:24;;;;;;;1.20;0.93;;;16.50;99.90;16.90;96632.00;;;;5020244;28;20217;-86
2021/08/02 06:57:14;;;;;;;0.90;0.60;;;16.70;99.90;17.10;96638.00;;;;5033366;28;20201;-86
2021/08/02 07:00:12;;;;;;;1.20;1.10;;;17.00;99.90;17.40;96634.00;;;;5033311;28;20272;-85
2021/08/02 07:03:01;;;;;;;1.00;0.93;;;17.20;99.90;17.70;96633.00;;;;4999282;28;20693;-85
2021/08/02 07:05:50;;;;;;;0.80;0.70;;;17.40;99.90;17.80;96631.00;;;;5003254;28;20408;-87
2021/08/02 07:08:40;;;;;;;4.83;1.00;;;17.70;99.90;18.10;96619.00;;;;5026125;28;20217;-85
2021/08/02 07:11:29;;;;;;;1.77;0.93;;;17.90;99.90;18.50;96628.00;;;;5033983;28;20240;-86
2021/08/02 07:14:18;;;;;;;0.70;0.60;;;18.10;99.90;18.60;96616.00;;;;5033800;28;20221;-86
2021/08/02 07:17:08;;;;;;;2.27;1.40;;;18.40;99.90;18.70;96627.00;;;;5040669;28;20248;-86
2021/08/02 07:19:57;;;;;;;2.23;1.20;;;18.60;99.90;18.50;96639.00;;;;5054355;28;20832;-87
2021/08/02 07:22:46;;;;;;;1.37;1.03;;;18.70;99.90;18.70;96634.00;;;;5053046;28;20233;-87
2021/08/02 07:25:35;;;;;;;1.50;0.70;;;18.70;99.90;18.40;96645.00;;;;5038684;28;20231;-87
2021/08/02 07:28:25;;;;;;;6.80;1.50;;;18.70;99.90;18.30;96645.00;;;;5033198;28;20267;-85
2021/08/02 07:31:15;;;;;;;0.97;0.70;;;18.70;99.90;18.40;96635.00;;;;5031999;28;20239;-86
2021/08/02 07:34:05;;;;;;;1.70;1.00;;;18.70;99.90;18.80;96623.00;;;;5032357;28;20232;-87
2021/08/02 07:36:54;;;;;;;1.80;1.10;;;18.80;99.90;19.00;96639.00;;;;5031540;28;20201;-86
2021/08/02 07:39:43;;;;;;;1.20;0.90;;;18.90;99.90;19.30;96640.00;;;;5030843;28;20209;-86
2021/08/02 07:42:32;;;;;;;0.83;0.70;;;19.00;99.90;19.60;96640.00;;;;5030191;28;20194;-86
2021/08/02 07:45:21;;;;;;;1.97;0.73;;;19.30;99.90;19.60;96643.00;;;;5013565;28;20222;-85
2021/08/02 07:48:10;;;;;;;2.27;0.90;;;19.50;99.90;19.90;96642.00;;;;5003116;28;20205;-86
2021/08/02 07:51:00;;;;;;;1.00;0.83;;;19.70;99.90;19.90;96641.00;;;;5004786;28;20629;-86
2021/08/02 07:53:49;;;;;;;2.97;0.93;;;19.80;99.90;19.50;96636.00;;;;5002606;28;20844;-86
2021/08/02 07:56:39;;;;;;;0.70;0.70;;;19.90;99.90;19.70;96636.00;;;;5000087;28;20191;-85
2021/08/02 07:59:28;;;;;;;2.27;0.90;;;19.80;99.90;19.80;96628.00;;;;5000835;28;20194;-85
2021/08/02 08:02:17;;;;;;;0.80;0.80;;;19.90;99.90;19.30;96627.00;;;;4999330;28;20206;-85
2021/08/02 08:05:07;;;;;;;0.90;0.60;;;19.80;99.90;19.30;96632.00;;;;5000670;28;20229;-86
2021/08/02 08:07:58;;;;;;;0.73;0.73;;;19.70;99.90;19.80;96637.00;;;;5001478;28;20209;-86
2021/08/02 08:10:47;;;;;;;1.10;0.90;;;19.80;99.90;19.90;96647.00;;;;5001904;28;20708;-86
2021/08/02 08:13:36;;;;;;;4.37;0.87;;;19.90;99.90;20.30;96630.00;;;;4998287;28;20218;-86
2021/08/02 08:16:25;;;;;;;2.00;1.60;;;20.10;99.90;20.60;96642.00;;;;5002037;28;20199;-85
2021/08/02 08:19:14;;;;;;;1.60;1.50;;;20.30;99.90;20.20;96646.00;;;;5000402;28;20202;-84
2021/08/02 08:22:03;;;;;;;1.37;0.83;;;20.40;99.90;20.40;96652.00;;;;4999549;28;20221;-86
2021/08/02 08:24:54;;;;;;;1.10;0.63;;;20.40;99.90;20.60;96654.00;;;;4997788;28;20226;-85
2021/08/02 08:27:43;;;;;;;0.87;0.80;;;20.60;99.90;20.30;96644.00;;;;5003179;28;20577;-84
2021/08/02 08:30:32;;;;;;;0.70;0.60;;;20.60;99.90;20.60;96641.00;;;;4999151;28;20205;-85
2021/08/02 08:33:26;;;;;;;0.60;0.50;;;20.70;99.90;21.30;96643.00;;;;5001247;28;20241;-86
2021/08/02 08:36:16;;;;;;;0.60;0.60;;;20.90;99.90;21.90;96645.00;;;;5001700;28;20202;-85
2021/08/02 08:39:05;;;;;;;2.20;0.50;;;21.30;99.90;22.20;96653.00;;;;4998910;28;20665;-85
2021/08/02 08:41:58;;;;;;;0.57;0.50;;;21.60;99.90;21.20;96656.00;;;;5002461;28;20291;-82
2021/08/02 08:44:47;;;;;;;1.63;0.93;;;21.70;99.90;20.80;96664.00;;;;5000807;28;20218;-83
2021/08/02 08:47:36;;;;;;;0.87;0.80;;;21.50;99.90;20.60;96673.00;;;;5005953;28;20333;-84
2021/08/02 08:50:26;;;;;;;0.60;0.50;;;21.30;99.90;20.80;96660.00;;;;5005887;28;20213;-86
2021/08/02 08:53:16;;;;;;;0.93;0.50;;;21.30;99.90;21.10;96658.00;;;;5003021;28;20576;-85
2021/08/02 08:56:06;;;;;;;1.67;0.63;;;21.30;99.90;21.50;96664.00;;;;5000105;28;20187;-85
2021/08/02 08:58:56;;;;;;;0.50;0.47;;;21.50;99.90;21.00;96657.00;;;;4999760;28;20202;-84
2021/08/02 09:01:45;;;;;;;0.40;0.40;;;21.50;99.90;20.90;96660.00;;;;5002571;28;20306;-83
2021/08/02 09:04:34;;;;;;;0.80;0.60;;;21.40;99.90;21.20;96671.00;;;;5002246;28;20219;-84
2021/08/02 09:07:35;;;;;;;1.23;0.43;;;21.40;99.90;21.70;96660.00;;;;5009478;28;20209;-85
2021/08/02 09:10:25;;;;;;;1.10;0.50;;;21.50;99.90;21.80;96667.00;;;;5002512;28;20229;-86
2021/08/02 09:13:14;;;;;;;0.60;0.60;;;21.70;99.90;21.60;96662.00;;;;5003483;28;20576;-87
2021/08/02 09:16:15;;;;;;;0.50;0.50;;;21.80;99.90;21.00;96662.00;;;;5005520;28;20202;-84
2021/08/02 09:19:08;;;;;;;0.77;0.70;;;22.40;98.20;21.00;96663.00;;;;5003444;28;21005;-84
2021/08/02 09:21:57;;;;;;;0.50;0.43;;;21.50;97.40;21.30;96674.00;;;;5001013;28;20225;-85
2021/08/02 09:24:46;;;;;;;1.07;0.50;;;21.50;97.80;21.50;96680.00;;;;5007565;28;20218;-85
2021/08/02 09:27:35;;;;;;;0.50;0.50;;;21.60;97.50;21.80;96686.00;;;;5002680;28;20350;-85
2021/08/02 09:30:28;;;;;;;1.17;0.60;;;21.70;98.20;21.50;96674.00;;;;5004720;28;20705;-85
2021/08/02 09:33:19;;;;;;;0.60;0.60;;;21.80;97.60;22.10;96674.00;;;;5002200;28;20283;-84
2021/08/02 09:36:08;;;;;;;1.13;0.70;;;22.10;99.10;22.00;96666.00;;;;4999766;28;20257;-83
2021/08/02 09:39:06;;;;;;;0.77;0.67;;;22.30;97.30;21.90;96662.00;;;;4989948;28;20206;-85
2021/08/02 09:42:03;;;;;;;2.30;0.70;;;22.20;95.70;21.50;96639.00;;;;5008676;28;20280;-83
2021/08/02 09:45:00;;;;;;;0.60;0.60;;;22.00;94.40;22.20;96665.00;;;;5010585;28;20232;-83
2021/08/02 09:47:52;;;;;;;0.60;0.60;;;22.20;94.30;22.60;96638.00;;;;5012179;28;20205;-84
2021/08/02 09:50:45;;;;;;;0.70;0.50;;;22.40;94.00;22.20;96672.00;;;;5013652;28;20205;-85
2021/08/02 09:53:38;;;;;;;0.60;0.60;;;22.60;91.70;22.60;96681.00;;;;5013495;28;20226;-85
2021/08/02 09:56:30;;;;;;;1.77;0.97;;;22.50;92.40;23.00;96681.00;;;;5014007;28;20229;-85
2021/08/02 09:59:26;;;;;;;1.37;0.83;;;22.70;93.70;23.20;96691.00;;;;5013582;28;20924;-86
2021/08/02 10:02:16;;;;;;;1.23;0.90;;;22.90;94.00;23.30;96688.00;;;;5013094;28;20283;-86
2021/08/02 10:05:06;;;;;;;0.77;0.77;;;23.00;92.30;23.40;96686.00;;;;5023000;28;20232;-86
2021/08/02 10:07:56;;;;;;;2.10;0.73;;;23.20;92.20;23.70;96684.00;;;;5034955;28;20205;-85
2021/08/02 10:10:45;;;;;;;2.30;0.70;;;23.40;90.40;23.70;96666.00;;;;5012850;28;20210;-85
2021/08/02 10:13:40;;;;;;;0.80;0.77;;;23.50;90.50;24.70;96674.00;;;;5010724;28;20218;-86
2021/08/02 10:16:30;;;;;;;0.70;0.67;;;23.90;90.10;24.60;96671.00;;;;5014048;28;20198;-85
2021/08/02 10:19:20;;;;;;;0.80;0.50;;;24.10;90.90;24.10;96680.00;;;;4998488;28;20196;-84
2021/08/02 10:22:09;;;;;;;1.13;0.77;;;24.20;86.20;24.40;96669.00;;;;5019684;28;20335;-84
2021/08/02 10:25:01;;;;;;;0.60;0.60;;;24.30;89.80;23.50;96687.00;;;;5014146;28;21017;-84
2021/08/02 10:27:50;;;;;;;1.17;0.70;;;24.30;85.30;23.90;96691.00;;;;4997821;28;20256;-85
2021/08/02 10:30:40;;;;;;;1.17;0.77;;;24.10;88.00;24.00;96690.00;;;;5014032;28;20694;-85
2021/08/02 10:33:34;;;;;;;1.07;0.97;;;24.10;90.00;23.90;96686.00;;;;5012776;28;20222;-85
2021/08/02 10:36:25;;;;;;;0.83;0.70;;;24.00;89.10;24.50;96663.00;;;;5013847;28;20261;-87
2021/08/02 10:39:25;;;;;;;0.70;0.70;;;24.20;89.60;25.10;96679.00;;;;5012260;28;20201;-85
2021/08/02 10:42:18;;;;;;;0.50;0.50;;;24.50;89.60;23.70;96687.00;;;;5021990;28;20240;-84
2021/08/02 10:45:32;;;;;;;0.50;0.33;;;24.60;83.10;22.60;96691.00;;;;5013162;28;20286;-85
2021/08/02 10:48:26;;;;;;;1.13;0.70;;;24.00;84.30;22.30;96683.00;;;;5020574;28;20209;-84
2021/08/02 10:51:17;;;;;;;2.00;0.60;;;23.50;86.00;22.40;96690.00;;;;5009247;28;20214;-84
2021/08/02 10:54:07;;;;;;;1.87;0.70;;;23.30;86.00;22.10;96676.00;;;;5015927;28;20245;-83
2021/08/02 10:56:58;;;;;;;0.67;0.67;;;22.90;86.50;22.40;96682.00;;;;5011583;28;20202;-84
2021/08/02 10:59:48;;;;;;;0.97;0.60;;;22.80;88.40;22.10;96682.00;;;;5020965;28;20232;-84
2021/08/02 11:02:37;;;;;;;0.53;0.50;;;22.70;90.20;22.30;96689.00;;;;5002857;28;20776;-84
2021/08/02 11:05:32;;;;;;;0.60;0.60;;;22.70;91.10;22.30;96690.00;;;;5012100;28;20229;-84
2021/08/02 11:08:21;;;;;;;0.70;0.70;;;22.60;90.90;22.20;96684.00;;;;5010027;28;20555;-84
2021/08/02 11:11:11;;;;;;;1.07;0.63;;;22.60;91.40;22.10;96685.00;;;;5013653;28;21112;-86
2021/08/02 11:14:07;;;;;;;0.70;0.60;;;22.60;91.10;21.80;96679.00;;;;5012567;28;20752;-82
2021/08/02 11:16:58;;;;;;;0.60;0.60;;;22.50;91.70;21.50;96668.00;;;;5014885;28;20245;-82
2021/08/02 11:19:47;;;;;;;0.77;0.50;;;22.20;92.40;21.80;96675.00;;;;5013671;28;20214;-84
2021/08/02 11:22:49;;;;;;;0.93;0.53;;;22.10;93.30;21.40;96684.00;;;;5013365;28;20234;-85
2021/08/02 11:25:38;;;;;;;0.67;0.60;;;22.00;93.90;21.00;96680.00;;;;5012409;28;20197;-84
2021/08/02 11:28:39;;;;;;;0.57;0.57;;;21.80;95.80;20.80;96680.00;;;;5012626;28;20201;-83
2021/08/02 11:31:27;;;;;;;1.30;0.80;;;21.60;97.40;21.00;96684.00;;;;5013344;28;20700;-83
2021/08/02 11:34:21;;;;;;;0.50;0.50;;;21.50;99.40;20.60;96687.00;;;;5013108;28;20229;-83
2021/08/02 11:37:13;;;;;;;0.67;0.60;;;21.20;99.20;20.60;96691.00;;;;5014633;28;20198;-85
2021/08/02 11:40:06;;;;;;;0.50;0.50;;;21.20;99.90;20.70;96692.00;;;;5025202;28;20226;-83
2021/08/02 11:43:02;;;;;;;0.60;0.50;;;21.00;99.90;20.70;96700.00;;;;5025496;28;20647;-83
2021/08/02 11:45:51;;;;;;;1.80;0.73;;;21.00;99.90;20.90;96688.00;;;;5013354;28;20232;-83
2021/08/02 11:48:43;;;;;;;1.00;0.70;;;21.10;99.90;21.20;96685.00;;;;5029569;28;20215;-83
2021/08/02 11:51:33;;;;;;;0.57;0.57;;;21.40;98.40;21.30;96691.00;;;;5031851;28;20596;-84
2021/08/02 11:54:24;;;;;;;0.77;0.50;;;21.50;98.20;22.00;96660.00;;;;5023346;28;20263;-84
2021/08/02 11:57:20;;;;;;;0.77;0.60;;;21.80;96.70;22.60;96674.00;;;;5011268;28;20672;-83
2021/08/02 12:00:16;;;;;;;1.00;0.37;;;22.30;96.40;21.80;96695.00;;;;5011454;28;20204;-84
2021/08/02 12:03:11;;;;;;;5.97;0.63;;;22.30;95.10;22.10;96678.00;;;;5010386;28;20716;-83
2021/08/02 12:06:05;;;;;;;1.37;0.30;;;22.40;94.70;22.50;96624.00;;;;5009739;28;20556;-84
2021/08/02 12:08:56;;;;;;;1.30;0.70;;;22.70;93.80;23.50;96658.00;;;;5011784;28;20206;-84
2021/08/02 12:11:46;;;;;;;0.37;0.30;;;22.90;94.50;24.10;96613.00;;;;5011431;28;20581;-84
2021/08/02 12:14:36;;;;;;;0.83;0.50;;;23.60;94.50;24.80;96683.00;;;;5010110;28;20229;-85
2021/08/02 12:17:25;;;;;;;0.73;0.60;;;24.00;92.50;22.90;96699.00;;;;5010566;28;20198;-83
2021/08/02 12:20:14;;;;;;;0.63;0.50;;;23.80;90.00;22.50;96696.00;;;;5011201;28;20244;-85
2021/08/02 12:23:05;;;;;;;0.30;0.30;;;23.40;90.90;21.80;96696.00;;;;5011314;28;20253;-85
2021/08/02 12:25:56;;;;;;;0.80;0.60;;;22.90;92.10;21.40;96705.00;;;;5011040;28;20251;-84
2021/08/02 12:28:46;;;;;;;0.50;0.40;;;22.40;93.90;20.80;96707.00;;;;5012116;28;20202;-84
2021/08/02 12:31:38;;;;;;;0.90;0.60;;;21.90;94.70;20.80;96702.00;;;;5011730;28;20213;-85
2021/08/02 12:34:29;;;;;;;0.60;0.60;;;21.60;95.70;20.70;96702.00;;;;5011283;28;20720;-83
2021/08/02 12:37:18;;;;;;;0.40;0.40;;;21.40;98.00;20.50;96705.00;;;;5011798;28;20676;-82
2021/08/02 12:40:10;;;;;;;2.47;0.60;;;21.20;98.40;20.40;96707.00;;;;5010460;28;20213;-83
2021/08/02 12:43:00;;;;;;;0.50;0.40;;;21.00;99.20;20.60;96696.00;;;;5010274;28;20218;-83